createdAt,value
2023-06-26T00:00:58.398Z,36.10
2023-06-26T00:01:58.369Z,36.09
2023-06-26T00:02:58.445Z,36.10
2023-06-26T00:03:58.503Z,36.11
2023-06-26T00:04:58.429Z,36.13
2023-06-26T00:05:58.427Z,36.10
2023-06-26T00:06:58.467Z,36.13
2023-06-26T00:07:58.450Z,36.12
2023-06-26T00:08:58.456Z,36.13
2023-06-26T00:09:58.492Z,36.14
2023-06-26T00:10:58.500Z,36.18
2023-06-26T00:11:58.509Z,36.19
2023-06-26T00:12:58.531Z,36.15
2023-06-26T00:13:58.550Z,36.18
2023-06-26T00:14:58.552Z,36.16
2023-06-26T00:15:58.580Z,36.18
2023-06-26T00:16:58.592Z,36.20
2023-06-26T00:17:58.664Z,36.22
2023-06-26T00:18:58.627Z,36.18
2023-06-26T00:19:58.630Z,36.20
2023-06-26T00:20:58.666Z,36.21
2023-06-26T00:21:58.668Z,36.21
2023-06-26T00:22:58.701Z,36.18
2023-06-26T00:23:58.706Z,36.25
2023-06-26T00:24:58.750Z,36.25
2023-06-26T00:25:58.768Z,36.25
2023-06-26T00:26:58.772Z,36.26
2023-06-26T00:27:58.779Z,36.26
2023-06-26T00:28:58.812Z,36.25
2023-06-26T00:29:58.826Z,36.25
2023-06-26T00:30:58.887Z,36.29
2023-06-26T00:31:58.858Z,36.28
2023-06-26T00:32:58.918Z,36.29
2023-06-26T00:33:58.894Z,36.30
2023-06-26T00:34:58.912Z,36.29
2023-06-26T00:35:58.920Z,36.29
2023-06-26T00:36:58.942Z,36.32
2023-06-26T00:37:58.973Z,36.30
2023-06-26T00:38:58.980Z,36.33
2023-06-26T00:39:59.018Z,36.31
2023-06-26T00:40:59.085Z,36.35
2023-06-26T00:41:59.024Z,36.36
2023-06-26T00:42:59.057Z,36.34
2023-06-26T00:43:59.070Z,36.33
2023-06-26T00:44:59.094Z,36.34
2023-06-26T00:45:59.139Z,36.38
2023-06-26T00:46:59.133Z,36.34
2023-06-26T00:47:59.172Z,36.34
2023-06-26T00:48:59.174Z,36.40
2023-06-26T00:49:59.206Z,36.38
2023-06-26T00:50:59.213Z,36.40
2023-06-26T00:51:59.218Z,36.40
2023-06-26T00:52:59.260Z,36.40
2023-06-26T00:53:59.262Z,36.39
2023-06-26T00:54:59.282Z,36.38
2023-06-26T00:55:59.294Z,36.39
2023-06-26T00:56:59.318Z,36.39
2023-06-26T00:57:59.356Z,36.39
2023-06-26T00:58:59.365Z,36.40
2023-06-26T00:59:59.396Z,36.39
2023-06-26T01:00:59.391Z,36.44
2023-06-26T01:01:59.421Z,36.43
2023-06-26T01:02:59.479Z,36.44
2023-06-26T01:03:59.439Z,36.42
2023-06-26T01:04:59.483Z,36.42
2023-06-26T01:06:08.735Z,36.43
2023-06-26T01:06:59.492Z,36.44
2023-06-26T01:07:59.490Z,36.44
2023-06-26T01:08:59.465Z,36.44
2023-06-26T01:09:59.740Z,36.45
2023-06-26T01:10:59.453Z,36.44
2023-06-26T01:11:59.450Z,36.47
2023-06-26T01:12:59.442Z,36.45
2023-06-26T01:13:59.438Z,36.45
2023-06-26T01:14:59.427Z,36.45
2023-06-26T01:15:59.448Z,36.47
2023-06-26T01:16:59.444Z,36.48
2023-06-26T01:17:59.450Z,36.48
2023-06-26T01:18:59.397Z,36.49
2023-06-26T01:19:59.432Z,36.47
2023-06-26T01:20:59.373Z,36.48
2023-06-26T01:21:59.402Z,36.51
2023-06-26T01:22:59.360Z,36.49
2023-06-26T01:23:59.373Z,36.49
2023-06-26T01:24:59.348Z,36.50
2023-06-26T01:25:59.348Z,36.52
2023-06-26T01:26:59.336Z,36.53
2023-06-26T01:27:59.342Z,36.53
2023-06-26T01:28:59.321Z,36.49
2023-06-26T01:29:59.320Z,36.53
2023-06-26T01:30:59.312Z,36.52
2023-06-26T01:31:59.416Z,36.53
2023-06-26T01:32:59.368Z,36.53
2023-06-26T01:33:59.289Z,36.52
2023-06-26T01:34:59.295Z,36.54
2023-06-26T01:35:59.283Z,36.56
2023-06-26T01:36:59.275Z,36.56
2023-06-26T01:37:59.265Z,36.54
2023-06-26T01:38:59.254Z,36.55
2023-06-26T01:39:59.278Z,36.54
2023-06-26T01:40:59.245Z,36.54
2023-06-26T01:41:59.236Z,36.55
2023-06-26T01:42:59.235Z,36.55
2023-06-26T01:43:59.232Z,36.56
2023-06-26T01:44:59.223Z,36.57
2023-06-26T01:45:59.334Z,36.56
2023-06-26T01:46:59.203Z,36.59
2023-06-26T01:47:59.228Z,36.56
2023-06-26T01:48:59.191Z,36.56
2023-06-26T01:49:59.184Z,36.57
2023-06-26T01:50:59.185Z,36.59
2023-06-26T01:51:59.167Z,36.60
2023-06-26T01:52:59.164Z,36.59
2023-06-26T01:53:59.157Z,36.59
2023-06-26T01:54:59.157Z,36.62
2023-06-26T01:55:59.162Z,36.60
2023-06-26T01:56:59.202Z,36.61
2023-06-26T01:57:59.127Z,36.61
2023-06-26T01:58:59.115Z,36.62
2023-06-26T01:59:59.132Z,36.62
2023-06-26T02:00:59.162Z,36.61
2023-06-26T02:01:59.169Z,36.62
2023-06-26T02:02:59.230Z,36.62
2023-06-26T02:03:59.200Z,36.62
2023-06-26T02:04:59.086Z,36.63
2023-06-26T02:05:59.087Z,36.61
2023-06-26T02:06:59.099Z,36.64
2023-06-26T02:07:59.077Z,36.64
2023-06-26T02:08:59.091Z,36.65
2023-06-26T02:09:59.076Z,36.64
2023-06-26T02:10:59.053Z,36.64
2023-06-26T02:11:59.029Z,36.62
2023-06-26T02:12:59.023Z,36.66
2023-06-26T02:13:59.046Z,36.64
2023-06-26T02:14:59.073Z,36.65
2023-06-26T02:15:59.105Z,36.64
2023-06-26T02:16:59.135Z,36.65
2023-06-26T02:17:59.167Z,36.66
2023-06-26T02:18:59.216Z,36.67
2023-06-26T02:19:59.232Z,36.65
2023-06-26T02:20:59.259Z,36.64
2023-06-26T02:21:59.305Z,36.68
2023-06-26T02:22:59.315Z,36.67
2023-06-26T02:23:59.379Z,36.67
2023-06-26T02:24:59.393Z,36.65
2023-06-26T02:25:59.429Z,36.67
2023-06-26T02:26:59.462Z,36.69
2023-06-26T02:27:59.508Z,36.67
2023-06-26T02:28:59.540Z,36.66
2023-06-26T02:29:59.571Z,36.68
2023-06-26T02:30:59.636Z,36.70
2023-06-26T02:31:59.633Z,36.68
2023-06-26T02:32:59.724Z,36.70
2023-06-26T02:33:59.676Z,36.70
2023-06-26T02:34:59.715Z,36.72
2023-06-26T02:35:59.763Z,36.71
2023-06-26T02:36:59.795Z,36.70
2023-06-26T02:37:59.814Z,36.69
2023-06-26T02:38:59.848Z,36.71
2023-06-26T02:39:59.940Z,36.69
2023-06-26T02:40:59.929Z,36.71
2023-06-26T02:41:59.950Z,36.70
2023-06-26T02:42:59.996Z,36.71
2023-06-26T02:44:00.058Z,36.72
2023-06-26T02:45:00.047Z,36.72
2023-06-26T02:46:00.093Z,36.70
2023-06-26T02:47:00.123Z,36.71
2023-06-26T02:48:00.202Z,36.72
2023-06-26T02:49:00.174Z,36.72
2023-06-26T02:50:00.223Z,36.71
2023-06-26T02:51:00.249Z,36.71
2023-06-26T02:52:00.278Z,36.72
2023-06-26T02:53:00.316Z,36.72
2023-06-26T02:54:00.325Z,36.75
2023-06-26T02:55:00.361Z,36.74
2023-06-26T02:56:00.400Z,36.73
2023-06-26T02:57:00.420Z,36.74
2023-06-26T02:58:00.485Z,36.73
2023-06-26T02:59:00.491Z,36.75
2023-06-26T03:00:00.530Z,36.73
2023-06-26T03:01:00.610Z,36.74
2023-06-26T03:02:00.604Z,36.75
2023-06-26T03:03:00.666Z,36.76
2023-06-26T03:04:00.685Z,36.76
2023-06-26T03:05:00.738Z,36.76
2023-06-26T03:06:00.750Z,36.74
2023-06-26T03:07:00.812Z,36.74
2023-06-26T03:08:00.885Z,36.74
2023-06-26T03:09:00.852Z,36.76
2023-06-26T03:10:00.884Z,36.77
2023-06-26T03:11:00.922Z,36.75
2023-06-26T03:12:00.932Z,36.76
2023-06-26T03:13:00.992Z,36.77
2023-06-26T03:14:01.034Z,36.75
2023-06-26T03:15:01.041Z,36.74
2023-06-26T03:16:01.116Z,36.75
2023-06-26T03:17:01.203Z,36.77
2023-06-26T03:18:01.252Z,36.76
2023-06-26T03:19:01.203Z,36.76
2023-06-26T03:20:01.219Z,36.75
2023-06-26T03:21:01.306Z,36.77
2023-06-26T03:22:01.286Z,36.76
2023-06-26T03:23:01.335Z,36.76
2023-06-26T03:24:01.371Z,36.78
2023-06-26T03:25:01.423Z,36.77
2023-06-26T03:26:01.442Z,36.74
2023-06-26T03:27:01.484Z,36.76
2023-06-26T03:28:01.511Z,36.76
2023-06-26T03:29:01.563Z,36.76
2023-06-26T03:30:01.598Z,36.77
2023-06-26T03:31:01.669Z,36.75
2023-06-26T03:32:01.697Z,36.75
2023-06-26T03:33:01.767Z,36.76
2023-06-26T03:34:01.770Z,36.76
2023-06-26T03:35:01.808Z,36.76
2023-06-26T03:36:01.845Z,36.75
2023-06-26T03:37:01.860Z,36.76
2023-06-26T03:38:01.903Z,36.75
2023-06-26T03:39:01.992Z,36.76
2023-06-26T03:40:02.000Z,36.77
2023-06-26T03:41:02.087Z,36.75
2023-06-26T03:42:02.104Z,36.75
2023-06-26T03:43:02.116Z,36.75
2023-06-26T03:44:02.205Z,36.74
2023-06-26T03:45:02.206Z,36.75
2023-06-26T03:46:02.361Z,36.73
2023-06-26T03:47:02.272Z,36.72
2023-06-26T03:48:02.344Z,36.71
2023-06-26T03:49:02.323Z,36.71
2023-06-26T03:50:02.401Z,36.72
2023-06-26T03:51:02.422Z,36.71
2023-06-26T03:52:02.430Z,36.68
2023-06-26T03:53:02.467Z,36.70
2023-06-26T03:54:02.502Z,36.72
2023-06-26T03:55:02.581Z,36.72
2023-06-26T03:56:02.589Z,36.71
2023-06-26T03:57:02.619Z,36.71
2023-06-26T03:58:02.642Z,36.71
2023-06-26T03:59:02.684Z,36.69
2023-06-26T04:00:02.704Z,36.71
2023-06-26T04:01:02.733Z,36.68
2023-06-26T04:02:02.774Z,36.67
2023-06-26T04:03:02.842Z,36.66
2023-06-26T04:04:02.877Z,36.67
2023-06-26T04:05:02.883Z,36.68
2023-06-26T04:06:02.912Z,36.67
2023-06-26T04:07:02.949Z,36.65
2023-06-26T04:08:03.020Z,36.65
2023-06-26T04:09:02.995Z,36.63
2023-06-26T04:10:03.029Z,36.63
2023-06-26T04:11:03.090Z,36.65
2023-06-26T04:12:03.119Z,36.65
2023-06-26T04:13:03.126Z,36.66
2023-06-26T04:14:03.139Z,36.64
2023-06-26T04:15:03.185Z,36.65
2023-06-26T04:16:03.242Z,36.65
2023-06-26T04:17:03.268Z,36.62
2023-06-26T04:18:03.304Z,36.63
2023-06-26T04:19:03.332Z,36.60
2023-06-26T04:20:03.355Z,36.62
2023-06-26T04:21:03.385Z,36.62
2023-06-26T04:22:03.419Z,36.60
2023-06-26T04:23:03.443Z,36.61
2023-06-26T04:24:03.477Z,36.62
2023-06-26T04:25:03.494Z,36.61
2023-06-26T04:26:03.548Z,36.61
2023-06-26T04:27:03.567Z,36.61
2023-06-26T04:28:03.573Z,36.62
2023-06-26T04:29:03.608Z,36.58
2023-06-26T04:30:03.649Z,36.55
2023-06-26T04:31:03.655Z,36.49
2023-06-26T04:32:03.812Z,36.48
2023-06-26T04:33:03.721Z,36.49
2023-06-26T04:34:03.750Z,36.48
2023-06-26T04:35:03.778Z,36.49
2023-06-26T04:36:03.825Z,36.43
2023-06-26T04:37:03.825Z,36.46
2023-06-26T04:38:03.858Z,36.43
2023-06-26T04:39:03.884Z,36.41
2023-06-26T04:40:03.935Z,36.33
2023-06-26T04:41:03.942Z,36.30
2023-06-26T04:42:03.950Z,36.23
2023-06-26T04:43:03.978Z,36.19
2023-06-26T04:44:03.975Z,36.15
2023-06-26T04:45:04.008Z,36.11
2023-06-26T04:46:04.075Z,36.11
2023-06-26T04:47:04.044Z,36.11
2023-06-26T04:48:04.066Z,36.06
2023-06-26T04:49:04.086Z,36.04
2023-06-26T04:50:04.093Z,36.00
2023-06-26T04:51:04.103Z,35.96
2023-06-26T04:52:04.099Z,35.92
2023-06-26T04:53:04.126Z,35.86
2023-06-26T04:54:04.113Z,35.83
2023-06-26T04:55:04.107Z,35.77
2023-06-26T04:56:04.114Z,35.75
2023-06-26T04:57:04.094Z,35.69
2023-06-26T04:58:04.083Z,35.65
2023-06-26T04:59:04.106Z,35.59
2023-06-26T05:00:04.089Z,35.52
2023-06-26T05:01:04.160Z,35.49
2023-06-26T05:02:04.223Z,35.40
2023-06-26T05:03:04.212Z,35.34
2023-06-26T05:04:04.122Z,35.26
2023-06-26T05:05:04.172Z,35.21
2023-06-26T05:06:09.161Z,35.18
2023-06-26T05:07:05.276Z,35.11
2023-06-26T05:08:04.197Z,35.09
2023-06-26T05:09:04.220Z,34.96
2023-06-26T05:10:04.261Z,34.86
2023-06-26T05:11:04.187Z,34.69
2023-06-26T05:12:04.183Z,34.59
2023-06-26T05:13:04.185Z,34.44
2023-06-26T05:14:04.160Z,34.37
2023-06-26T05:15:04.152Z,34.50
2023-06-26T05:16:04.154Z,34.56
2023-06-26T05:17:04.194Z,34.70
2023-06-26T05:18:04.230Z,34.71
2023-06-26T05:19:04.304Z,34.45
2023-06-26T05:20:04.291Z,34.21
2023-06-26T05:21:04.311Z,34.00
2023-06-26T05:22:04.346Z,33.80
2023-06-26T05:23:04.314Z,33.69
2023-06-26T05:24:04.317Z,33.52
2023-06-26T05:25:04.360Z,33.41
2023-06-26T05:26:04.343Z,33.49
2023-06-26T05:27:04.390Z,33.34
2023-06-26T05:28:04.483Z,33.26
2023-06-26T05:29:04.521Z,33.13
2023-06-26T05:30:04.583Z,33.07
2023-06-26T05:31:04.708Z,32.98
2023-06-26T05:32:04.696Z,32.88
2023-06-26T05:33:04.790Z,33.14
2023-06-26T05:34:04.785Z,33.38
2023-06-26T05:35:04.857Z,33.26
2023-06-26T05:36:04.784Z,32.80
2023-06-26T05:37:04.808Z,33.50
2023-06-26T05:38:04.911Z,33.96
2023-06-26T05:39:04.918Z,34.55
2023-06-26T05:40:04.915Z,34.45
2023-06-26T05:41:05.380Z,34.95
2023-06-26T05:42:04.925Z,34.71
2023-06-26T05:43:04.970Z,35.19
2023-06-26T05:44:05.020Z,35.20
2023-06-26T05:45:05.046Z,35.14
2023-06-26T05:46:05.104Z,35.46
2023-06-26T05:47:05.192Z,35.54
2023-06-26T05:48:05.334Z,35.19
2023-06-26T05:49:05.258Z,35.44
2023-06-26T05:50:05.315Z,35.55
2023-06-26T05:51:05.376Z,35.56
2023-06-26T05:52:05.440Z,35.52
2023-06-26T05:53:05.512Z,35.59
2023-06-26T05:54:05.544Z,35.50
2023-06-26T05:55:05.629Z,35.59
2023-06-26T05:56:05.740Z,35.62
2023-06-26T05:57:05.794Z,35.80
2023-06-26T05:58:05.762Z,35.82
2023-06-26T05:59:05.804Z,36.01
2023-06-26T06:00:05.848Z,36.18
2023-06-26T06:01:05.906Z,36.25
2023-06-26T06:02:06.080Z,36.19
2023-06-26T06:03:06.074Z,36.13
2023-06-26T06:04:06.106Z,36.05
2023-06-26T06:05:06.083Z,36.51
2023-06-26T06:06:06.147Z,36.86
2023-06-26T06:07:06.199Z,36.88
2023-06-26T06:08:06.193Z,35.99
2023-06-26T06:09:06.196Z,35.14
2023-06-26T06:10:06.235Z,34.62
2023-06-26T06:11:06.256Z,34.71
2023-06-26T06:12:06.289Z,34.87
2023-06-26T06:13:06.339Z,34.95
2023-06-26T06:14:06.368Z,35.05
2023-06-26T06:15:06.538Z,35.00
2023-06-26T06:16:06.467Z,34.98
2023-06-26T06:17:06.562Z,35.07
2023-06-26T06:18:06.644Z,35.26
2023-06-26T06:19:06.617Z,35.00
2023-06-26T06:20:06.696Z,35.02
2023-06-26T06:21:06.744Z,35.01
2023-06-26T06:22:06.729Z,35.05
2023-06-26T06:23:06.782Z,35.04
2023-06-26T06:24:06.756Z,35.16
2023-06-26T06:25:06.778Z,35.20
2023-06-26T06:26:06.852Z,35.27
2023-06-26T06:27:06.833Z,35.40
2023-06-26T06:28:06.828Z,35.21
2023-06-26T06:29:06.849Z,35.34
2023-06-26T06:30:08.930Z,35.30
2023-06-26T06:31:06.886Z,35.43
2023-06-26T06:32:07.011Z,35.32
2023-06-26T06:33:07.029Z,35.28
2023-06-26T06:34:06.984Z,35.28
2023-06-26T06:35:06.953Z,35.36
2023-06-26T06:36:06.971Z,35.56
2023-06-26T06:37:07.051Z,35.52
2023-06-26T06:38:07.100Z,35.82
2023-06-26T06:39:07.140Z,35.78
2023-06-26T06:40:07.432Z,35.69
2023-06-26T06:41:07.189Z,35.67
2023-06-26T06:42:07.252Z,35.63
2023-06-26T06:43:07.324Z,35.56
2023-06-26T06:44:07.390Z,35.55
2023-06-26T06:45:07.908Z,35.50
2023-06-26T06:46:07.904Z,35.49
2023-06-26T06:47:07.528Z,35.47
2023-06-26T06:48:07.630Z,35.43
2023-06-26T06:49:07.656Z,35.40
2023-06-26T06:50:07.904Z,35.33
2023-06-26T06:51:10.107Z,35.28
2023-06-26T06:52:07.941Z,35.21
2023-06-26T06:53:07.957Z,35.16
2023-06-26T06:54:07.990Z,35.13
2023-06-26T06:55:08.010Z,35.11
2023-06-26T06:56:08.039Z,35.07
2023-06-26T06:57:08.099Z,35.06
2023-06-26T06:58:08.077Z,35.05
2023-06-26T06:59:08.097Z,35.03
2023-06-26T07:00:08.116Z,35.04
2023-06-26T07:01:08.460Z,34.99
2023-06-26T07:02:08.180Z,35.02
2023-06-26T07:03:08.257Z,35.01
2023-06-26T07:04:08.205Z,34.99
2023-06-26T07:05:08.261Z,35.00
2023-06-26T07:06:08.205Z,34.96
2023-06-26T07:07:08.284Z,34.95
2023-06-26T07:08:08.225Z,34.95
2023-06-26T07:09:08.223Z,34.91
2023-06-26T07:10:08.229Z,34.83
2023-06-26T07:11:08.247Z,34.83
2023-06-26T07:12:08.242Z,34.84
2023-06-26T07:13:08.231Z,34.83
2023-06-26T07:14:08.235Z,34.80
2023-06-26T07:15:08.247Z,34.80
2023-06-26T07:16:08.250Z,34.81
2023-06-26T07:17:08.254Z,34.74
2023-06-26T07:18:08.285Z,34.73
2023-06-26T07:19:08.247Z,34.71
2023-06-26T07:20:08.315Z,34.75
2023-06-26T07:21:08.261Z,34.82
2023-06-26T07:22:08.253Z,35.62
2023-06-26T07:23:08.250Z,35.58
2023-06-26T07:24:08.227Z,35.68
2023-06-26T07:25:08.239Z,35.75
2023-06-26T07:26:08.265Z,36.60
2023-06-26T07:27:08.341Z,36.80
2023-06-26T07:28:08.384Z,36.34
2023-06-26T07:29:08.468Z,36.19
2023-06-26T07:30:08.525Z,36.76
2023-06-26T07:31:09.138Z,37.13
2023-06-26T07:32:08.617Z,38.18
2023-06-26T07:33:08.670Z,37.88
2023-06-26T07:34:08.720Z,37.44
2023-06-26T07:35:08.808Z,37.73
2023-06-26T07:36:08.917Z,37.90
2023-06-26T07:37:08.909Z,41.01
2023-06-26T07:38:08.924Z,39.21
2023-06-26T07:39:11.333Z,38.29
2023-06-26T07:40:08.949Z,37.88
2023-06-26T07:41:09.420Z,37.76
2023-06-26T07:42:08.929Z,37.91
2023-06-26T07:43:08.945Z,38.49
2023-06-26T07:44:08.911Z,38.73
2023-06-26T07:45:10.120Z,38.92
2023-06-26T07:46:08.935Z,39.27
2023-06-26T07:47:08.960Z,39.00
2023-06-26T07:48:08.967Z,39.03
2023-06-26T07:49:08.885Z,39.29
2023-06-26T07:50:08.884Z,39.43
2023-06-26T07:51:08.881Z,39.33
2023-06-26T07:52:08.855Z,39.15
2023-06-26T07:53:08.863Z,39.04
2023-06-26T07:54:08.848Z,38.83
2023-06-26T07:55:08.889Z,38.99
2023-06-26T07:56:08.852Z,39.10
2023-06-26T07:57:08.821Z,39.12
2023-06-26T07:58:08.832Z,39.21
2023-06-26T07:59:08.812Z,39.25
2023-06-26T08:00:08.806Z,39.34
2023-06-26T08:01:09.044Z,39.40
2023-06-26T08:02:08.797Z,39.30
2023-06-26T08:03:12.654Z,38.98
2023-06-26T08:04:09.856Z,38.57
2023-06-26T08:05:08.985Z,38.44
2023-06-26T08:07:37.547Z,39.15
2023-06-26T08:08:37.512Z,39.17
2023-06-26T08:09:37.506Z,38.47
2023-06-26T08:10:37.947Z,38.24
2023-06-26T08:11:37.990Z,37.89
2023-06-26T08:12:37.513Z,38.12
2023-06-26T08:13:37.509Z,38.06
2023-06-26T08:14:37.506Z,38.37
2023-06-26T08:15:37.524Z,37.92
2023-06-26T08:16:37.588Z,37.05
2023-06-26T08:17:37.586Z,36.97
2023-06-26T08:18:37.510Z,36.93
2023-06-26T08:19:37.490Z,36.93
2023-06-26T08:20:37.721Z,36.80
2023-06-26T08:21:37.497Z,37.12
2023-06-26T08:22:37.498Z,36.93
2023-06-26T08:23:37.518Z,37.08
2023-06-26T08:24:37.535Z,36.98
2023-06-26T08:25:37.540Z,35.71
2023-06-26T08:26:38.511Z,34.99
2023-06-26T08:27:37.581Z,34.86
2023-06-26T08:28:37.599Z,34.88
2023-06-26T08:29:37.692Z,34.76
2023-06-26T08:30:38.809Z,34.40
2023-06-26T08:31:38.025Z,34.54
2023-06-26T08:32:37.862Z,34.45
2023-06-26T08:33:37.681Z,34.60
2023-06-26T08:34:37.686Z,34.57
2023-06-26T08:35:37.687Z,34.63
2023-06-26T08:36:37.697Z,34.79
2023-06-26T08:37:37.673Z,33.66
2023-06-26T08:38:37.683Z,33.69
2023-06-26T08:39:37.850Z,33.92
2023-06-26T08:40:38.064Z,34.16
2023-06-26T08:41:38.009Z,33.89
2023-06-26T08:42:37.770Z,34.39
2023-06-26T08:43:37.783Z,35.32
2023-06-26T08:44:46.082Z,35.11
2023-06-26T08:45:38.792Z,35.97
2023-06-26T08:46:37.873Z,36.04
2023-06-26T08:47:37.890Z,36.09
2023-06-26T08:48:37.801Z,36.04
2023-06-26T08:49:37.764Z,36.26
2023-06-26T08:50:38.069Z,36.76
2023-06-26T08:51:37.778Z,35.63
2023-06-26T08:52:37.746Z,36.41
2023-06-26T08:53:37.741Z,35.84
2023-06-26T08:54:37.746Z,35.41
2023-06-26T08:55:37.745Z,34.45
2023-06-26T08:56:37.736Z,33.54
2023-06-26T08:57:37.737Z,32.99
2023-06-26T08:58:37.732Z,33.36
2023-06-26T08:59:37.720Z,33.32
2023-06-26T09:00:38.133Z,33.10
2023-06-26T09:01:37.713Z,33.36
2023-06-26T09:02:37.832Z,32.88
2023-06-26T09:03:37.786Z,32.69
2023-06-26T09:04:37.883Z,33.12
2023-06-26T09:05:37.675Z,32.93
2023-06-26T09:06:37.705Z,32.50
2023-06-26T09:07:37.755Z,32.48
2023-06-26T09:08:37.642Z,32.04
2023-06-26T09:09:37.649Z,32.62
2023-06-26T09:10:37.855Z,32.43
2023-06-26T09:11:37.641Z,33.10
2023-06-26T09:12:37.652Z,32.95
2023-06-26T09:13:37.667Z,33.26
2023-06-26T09:14:37.681Z,33.56
2023-06-26T09:15:37.710Z,32.76
2023-06-26T09:16:37.769Z,32.84
2023-06-26T09:17:37.730Z,33.11
2023-06-26T09:18:37.719Z,33.42
2023-06-26T09:19:37.713Z,33.27
2023-06-26T09:20:38.238Z,33.41
2023-06-26T09:21:37.734Z,33.22
2023-06-26T09:22:37.722Z,33.27
2023-06-26T09:23:37.722Z,33.55
2023-06-26T09:24:37.713Z,33.16
2023-06-26T09:25:38.692Z,33.02
2023-06-26T09:26:37.754Z,33.05
2023-06-26T09:27:37.727Z,33.04
2023-06-26T09:28:37.732Z,33.08
2023-06-26T09:29:37.729Z,33.21
2023-06-26T09:30:38.221Z,33.01
2023-06-26T09:31:42.235Z,32.95
2023-06-26T09:32:38.956Z,32.39
2023-06-26T09:33:37.877Z,32.52
2023-06-26T09:34:37.764Z,32.50
2023-06-26T09:35:37.714Z,32.59
2023-06-26T09:36:40.056Z,32.49
2023-06-26T09:37:38.026Z,32.60
2023-06-26T09:38:37.712Z,32.56
2023-06-26T09:39:37.685Z,32.82
2023-06-26T09:40:37.943Z,32.70
2023-06-26T09:41:38.058Z,32.68
2023-06-26T09:42:37.669Z,32.71
2023-06-26T09:43:37.673Z,32.79
2023-06-26T09:44:37.729Z,32.93
2023-06-26T09:45:37.722Z,32.59
2023-06-26T09:46:38.081Z,32.68
2023-06-26T09:47:37.657Z,32.45
2023-06-26T09:48:37.624Z,32.55
2023-06-26T09:49:37.617Z,32.63
2023-06-26T09:50:38.014Z,32.67
2023-06-26T09:51:37.661Z,32.74
2023-06-26T09:52:37.839Z,32.76
2023-06-26T09:53:37.596Z,32.85
2023-06-26T09:54:37.605Z,32.82
2023-06-26T09:55:37.601Z,32.82
2023-06-26T09:56:37.610Z,32.73
2023-06-26T09:57:37.574Z,32.68
2023-06-26T09:58:37.567Z,32.73
2023-06-26T09:59:37.550Z,32.71
2023-06-26T10:00:37.794Z,32.74
2023-06-26T10:01:37.630Z,32.64
2023-06-26T10:02:37.684Z,32.47
2023-06-26T10:03:37.651Z,32.48
2023-06-26T10:04:37.721Z,32.73
2023-06-26T10:05:37.518Z,32.66
2023-06-26T10:06:37.571Z,32.65
2023-06-26T10:07:37.543Z,32.34
2023-06-26T10:08:37.651Z,32.44
2023-06-26T10:09:37.492Z,32.53
2023-06-26T10:10:37.799Z,32.52
2023-06-26T10:11:37.522Z,32.41
2023-06-26T10:12:37.501Z,32.46
2023-06-26T10:13:37.473Z,32.24
2023-06-26T10:14:37.472Z,32.27
2023-06-26T10:15:37.519Z,32.19
2023-06-26T10:16:37.486Z,32.49
2023-06-26T10:17:37.517Z,32.63
2023-06-26T10:18:37.436Z,32.44
2023-06-26T10:19:37.442Z,32.22
2023-06-26T10:20:37.732Z,32.12
2023-06-26T10:21:37.442Z,32.31
2023-06-26T10:22:37.415Z,32.26
2023-06-26T10:23:37.423Z,32.51
2023-06-26T10:24:37.424Z,34.30
2023-06-26T10:25:37.400Z,33.94
2023-06-26T10:26:37.427Z,33.36
2023-06-26T10:27:37.465Z,33.11
2023-06-26T10:28:37.380Z,32.29
2023-06-26T10:29:37.377Z,31.60
2023-06-26T10:30:37.443Z,31.42
2023-06-26T10:31:37.465Z,31.33
2023-06-26T10:32:37.371Z,31.44
2023-06-26T10:33:37.362Z,31.54
2023-06-26T10:34:37.380Z,31.49
2023-06-26T10:35:37.345Z,31.39
2023-06-26T10:36:37.359Z,31.31
2023-06-26T10:37:37.329Z,31.73
2023-06-26T10:38:37.385Z,31.76
2023-06-26T10:39:37.327Z,31.70
2023-06-26T10:40:37.536Z,31.20
2023-06-26T10:41:38.192Z,30.76
2023-06-26T10:42:37.323Z,29.68
2023-06-26T10:43:37.311Z,28.62
2023-06-26T10:44:37.298Z,28.38
2023-06-26T10:45:37.326Z,28.01
2023-06-26T10:46:37.307Z,27.80
2023-06-26T10:47:37.407Z,27.86
2023-06-26T10:48:37.345Z,28.15
2023-06-26T10:49:37.402Z,28.36
2023-06-26T10:50:37.574Z,28.67
2023-06-26T10:51:37.538Z,28.98
2023-06-26T10:52:37.609Z,29.06
2023-06-26T10:53:37.610Z,29.38
2023-06-26T10:54:37.663Z,29.53
2023-06-26T10:55:37.745Z,29.67
2023-06-26T10:56:38.085Z,29.69
2023-06-26T10:57:37.841Z,29.18
2023-06-26T10:58:37.916Z,28.24
2023-06-26T10:59:37.949Z,27.82
2023-06-26T11:00:38.283Z,27.84
2023-06-26T11:01:38.096Z,28.03
2023-06-26T11:02:38.117Z,28.12
2023-06-26T11:03:38.172Z,28.37
2023-06-26T11:04:38.273Z,28.75
2023-06-26T11:05:38.283Z,28.94
2023-06-26T11:06:38.329Z,28.96
2023-06-26T11:07:38.337Z,28.65
2023-06-26T11:08:38.344Z,28.76
2023-06-26T11:09:38.355Z,28.93
2023-06-26T11:10:38.549Z,29.00
2023-06-26T11:11:38.431Z,29.07
2023-06-26T11:12:38.504Z,29.16
2023-06-26T11:13:38.342Z,29.17
2023-06-26T11:14:38.379Z,29.19
2023-06-26T11:15:38.362Z,29.22
2023-06-26T11:16:38.380Z,29.14
2023-06-26T11:17:38.480Z,29.11
2023-06-26T11:18:38.391Z,29.16
2023-06-26T11:19:38.387Z,29.20
2023-06-26T11:20:38.568Z,29.81
2023-06-26T11:21:38.442Z,29.78
2023-06-26T11:22:38.405Z,29.57
2023-06-26T11:23:38.430Z,29.66
2023-06-26T11:24:38.450Z,29.33
2023-06-26T11:25:38.464Z,29.20
2023-06-26T11:26:38.503Z,29.29
2023-06-26T11:27:38.507Z,29.29
2023-06-26T11:28:38.558Z,29.30
2023-06-26T11:29:38.508Z,29.50
2023-06-26T11:30:38.829Z,29.29
2023-06-26T11:31:38.544Z,29.39
2023-06-26T11:32:38.679Z,29.25
2023-06-26T11:33:38.580Z,29.29
2023-06-26T11:34:38.689Z,29.32
2023-06-26T11:35:38.605Z,29.17
2023-06-26T11:36:38.637Z,29.29
2023-06-26T11:37:38.677Z,29.18
2023-06-26T11:38:38.659Z,29.19
2023-06-26T11:39:38.687Z,29.34
2023-06-26T11:40:39.277Z,29.32
2023-06-26T11:41:38.761Z,29.19
2023-06-26T11:42:38.718Z,29.09
2023-06-26T11:43:38.747Z,29.15
2023-06-26T11:44:38.758Z,29.08
2023-06-26T11:45:38.808Z,29.10
2023-06-26T11:46:38.844Z,29.25
2023-06-26T11:47:38.933Z,29.08
2023-06-26T11:48:38.885Z,28.98
2023-06-26T11:49:38.841Z,29.11
2023-06-26T11:50:39.175Z,29.14
2023-06-26T11:51:38.915Z,29.14
2023-06-26T11:52:38.876Z,29.08
2023-06-26T11:53:38.886Z,29.07
2023-06-26T11:54:38.897Z,29.11
2023-06-26T11:55:38.908Z,29.14
2023-06-26T11:56:38.938Z,29.27
2023-06-26T11:57:38.964Z,29.26
2023-06-26T11:58:38.974Z,29.40
2023-06-26T11:59:38.961Z,29.33
2023-06-26T12:00:39.261Z,29.37
2023-06-26T12:01:38.977Z,29.34
2023-06-26T12:02:39.025Z,29.26
2023-06-26T12:03:39.243Z,29.34
2023-06-26T12:04:39.145Z,29.09
2023-06-26T12:05:41.295Z,29.15
2023-06-26T12:06:39.042Z,29.17
2023-06-26T12:07:39.064Z,29.02
2023-06-26T12:08:39.066Z,29.03
2023-06-26T12:09:39.069Z,29.12
2023-06-26T12:10:39.292Z,29.25
2023-06-26T12:11:39.124Z,28.99
2023-06-26T12:12:39.119Z,28.86
2023-06-26T12:13:39.125Z,28.92
2023-06-26T12:14:39.124Z,29.09
2023-06-26T12:15:39.136Z,29.01
2023-06-26T12:16:39.191Z,28.93
2023-06-26T12:17:39.180Z,28.96
2023-06-26T12:18:39.181Z,29.00
2023-06-26T12:19:39.190Z,29.00
2023-06-26T12:20:39.376Z,28.84
2023-06-26T12:21:39.370Z,28.88
2023-06-26T12:22:39.242Z,28.92
2023-06-26T12:23:39.245Z,28.92
2023-06-26T12:24:39.243Z,28.99
2023-06-26T12:25:39.256Z,28.99
2023-06-26T12:26:39.302Z,29.08
2023-06-26T12:27:39.296Z,29.06
2023-06-26T12:28:39.297Z,28.94
2023-06-26T12:29:39.300Z,28.96
2023-06-26T12:30:39.520Z,28.96
2023-06-26T12:31:39.357Z,29.03
2023-06-26T12:32:39.371Z,29.00
2023-06-26T12:33:39.340Z,28.93
2023-06-26T12:34:39.377Z,28.93
2023-06-26T12:35:40.069Z,29.02
2023-06-26T12:36:39.373Z,28.99
2023-06-26T12:37:39.398Z,29.00
2023-06-26T12:38:39.406Z,29.12
2023-06-26T12:39:39.411Z,29.21
2023-06-26T12:40:39.697Z,29.24
2023-06-26T12:41:39.423Z,29.23
2023-06-26T12:42:39.437Z,29.20
2023-06-26T12:43:39.446Z,29.23
2023-06-26T12:44:39.458Z,29.22
2023-06-26T12:45:39.522Z,29.18
2023-06-26T12:46:39.548Z,29.20
2023-06-26T12:47:39.565Z,29.19
2023-06-26T12:48:39.592Z,29.17
2023-06-26T12:49:39.528Z,29.10
2023-06-26T12:50:39.840Z,29.16
2023-06-26T12:51:39.555Z,29.34
2023-06-26T12:52:39.581Z,29.23
2023-06-26T12:53:39.600Z,29.19
2023-06-26T12:54:39.609Z,29.26